sensor_id;sensor_type;location;lat;lon;timestamp;P1;durP1;ratioP1;P2;durP2;ratioP2
75429;SDS011;64127;51.488;5.462;2023-02-23T00:01:09;44.50;;;36.57;;
75429;SDS011;64127;51.488;5.462;2023-02-23T00:03:56;41.13;;;35.50;;
75429;SDS011;64127;51.488;5.462;2023-02-23T00:06:29;47.97;;;37.47;;
75429;SDS011;64127;51.488;5.462;2023-02-23T00:09:04;44.87;;;37.10;;
75429;SDS011;64127;51.488;5.462;2023-02-23T00:11:40;45.80;;;37.53;;
75429;SDS011;64127;51.488;5.462;2023-02-23T00:14:12;47.73;;;37.53;;
75429;SDS011;64127;51.488;5.462;2023-02-23T00:16:45;45.17;;;37.10;;
75429;SDS011;64127;51.488;5.462;2023-02-23T00:19:17;46.73;;;37.00;;
75429;SDS011;64127;51.488;5.462;2023-02-23T00:21:50;45.63;;;36.57;;
75429;SDS011;64127;51.488;5.462;2023-02-23T00:24:23;46.37;;;37.73;;
75429;SDS011;64127;51.488;5.462;2023-02-23T00:26:57;45.50;;;36.57;;
75429;SDS011;64127;51.488;5.462;2023-02-23T00:29:29;50.73;;;37.77;;
75429;SDS011;64127;51.488;5.462;2023-02-23T00:32:08;46.93;;;36.63;;
75429;SDS011;64127;51.488;5.462;2023-02-23T00:34:40;47.73;;;37.43;;
75429;SDS011;64127;51.488;5.462;2023-02-23T00:37:12;45.83;;;37.23;;
75429;SDS011;64127;51.488;5.462;2023-02-23T00:39:45;44.50;;;36.03;;
75429;SDS011;64127;51.488;5.462;2023-02-23T00:42:17;48.30;;;38.23;;
75429;SDS011;64127;51.488;5.462;2023-02-23T00:44:49;48.73;;;36.37;;
75429;SDS011;64127;51.488;5.462;2023-02-23T00:47:21;47.17;;;37.93;;
75429;SDS011;64127;51.488;5.462;2023-02-23T00:49:53;47.63;;;38.73;;
75429;SDS011;64127;51.488;5.462;2023-02-23T00:52:25;51.40;;;39.53;;
75429;SDS011;64127;51.488;5.462;2023-02-23T00:54:57;50.00;;;38.10;;
75429;SDS011;64127;51.488;5.462;2023-02-23T00:57:29;46.57;;;38.60;;
75429;SDS011;64127;51.488;5.462;2023-02-23T01:00:01;51.33;;;40.30;;
75429;SDS011;64127;51.488;5.462;2023-02-23T01:02:50;53.20;;;39.77;;
75429;SDS011;64127;51.488;5.462;2023-02-23T01:05:22;51.70;;;39.57;;
75429;SDS011;64127;51.488;5.462;2023-02-23T01:07:54;51.10;;;39.93;;
75429;SDS011;64127;51.488;5.462;2023-02-23T01:10:26;51.20;;;39.67;;
75429;SDS011;64127;51.488;5.462;2023-02-23T01:12:58;50.30;;;40.47;;
75429;SDS011;64127;51.488;5.462;2023-02-23T01:15:30;51.63;;;39.87;;
75429;SDS011;64127;51.488;5.462;2023-02-23T01:18:03;50.03;;;39.93;;
75429;SDS011;64127;51.488;5.462;2023-02-23T01:20:35;51.33;;;40.43;;
75429;SDS011;64127;51.488;5.462;2023-02-23T01:23:08;50.20;;;38.70;;
75429;SDS011;64127;51.488;5.462;2023-02-23T01:25:43;50.43;;;40.10;;
75429;SDS011;64127;51.488;5.462;2023-02-23T01:28:15;51.80;;;40.23;;
75429;SDS011;64127;51.488;5.462;2023-02-23T01:30:48;53.67;;;40.03;;
75429;SDS011;64127;51.488;5.462;2023-02-23T01:33:20;59.57;;;42.10;;
75429;SDS011;64127;51.488;5.462;2023-02-23T01:35:56;51.43;;;39.47;;
75429;SDS011;64127;51.488;5.462;2023-02-23T01:38:30;57.93;;;40.70;;
75429;SDS011;64127;51.488;5.462;2023-02-23T01:41:02;57.80;;;40.87;;
75429;SDS011;64127;51.488;5.462;2023-02-23T01:43:34;51.23;;;39.87;;
75429;SDS011;64127;51.488;5.462;2023-02-23T01:46:32;54.77;;;40.27;;
75429;SDS011;64127;51.488;5.462;2023-02-23T01:49:12;52.70;;;39.83;;
75429;SDS011;64127;51.488;5.462;2023-02-23T01:52:09;56.13;;;41.50;;
75429;SDS011;64127;51.488;5.462;2023-02-23T01:54:45;56.27;;;41.00;;
75429;SDS011;64127;51.488;5.462;2023-02-23T01:57:23;58.43;;;42.57;;
75429;SDS011;64127;51.488;5.462;2023-02-23T01:59:57;57.13;;;43.00;;
75429;SDS011;64127;51.488;5.462;2023-02-23T02:02:29;61.87;;;43.60;;
75429;SDS011;64127;51.488;5.462;2023-02-23T02:05:03;56.97;;;42.47;;
75429;SDS011;64127;51.488;5.462;2023-02-23T02:07:45;58.77;;;42.97;;
75429;SDS011;64127;51.488;5.462;2023-02-23T02:10:20;57.67;;;42.47;;
75429;SDS011;64127;51.488;5.462;2023-02-23T02:13:10;58.93;;;43.23;;
75429;SDS011;64127;51.488;5.462;2023-02-23T02:37:25;62.43;;;42.63;;
75429;SDS011;64127;51.488;5.462;2023-02-23T02:40:14;60.93;;;42.40;;
75429;SDS011;64127;51.488;5.462;2023-02-23T02:46:22;60.83;;;42.17;;
75429;SDS011;64127;51.488;5.462;2023-02-23T02:54:33;61.60;;;43.03;;
75429;SDS011;64127;51.488;5.462;2023-02-23T02:57:24;61.40;;;42.90;;
75429;SDS011;64127;51.488;5.462;2023-02-23T02:59:59;59.37;;;42.03;;
75429;SDS011;64127;51.488;5.462;2023-02-23T03:02:50;60.27;;;42.00;;
75429;SDS011;64127;51.488;5.462;2023-02-23T03:05:44;57.83;;;40.83;;
75429;SDS011;64127;51.488;5.462;2023-02-23T03:08:48;60.57;;;42.03;;
75429;SDS011;64127;51.488;5.462;2023-02-23T03:15:59;59.93;;;40.93;;
75429;SDS011;64127;51.488;5.462;2023-02-23T03:19:11;58.73;;;42.10;;
75429;SDS011;64127;51.488;5.462;2023-02-23T03:25:58;64.40;;;43.10;;
75429;SDS011;64127;51.488;5.462;2023-02-23T03:29:31;62.83;;;42.70;;
75429;SDS011;64127;51.488;5.462;2023-02-23T03:32:35;57.60;;;40.93;;
75429;SDS011;64127;51.488;5.462;2023-02-23T03:35:50;62.00;;;42.83;;
75429;SDS011;64127;51.488;5.462;2023-02-23T03:38:54;60.10;;;41.97;;
75429;SDS011;64127;51.488;5.462;2023-02-23T03:41:57;61.17;;;41.47;;
75429;SDS011;64127;51.488;5.462;2023-02-23T03:44:52;59.47;;;41.57;;
75429;SDS011;64127;51.488;5.462;2023-02-23T03:47:46;60.23;;;42.43;;
75429;SDS011;64127;51.488;5.462;2023-02-23T03:50:40;64.13;;;43.23;;
75429;SDS011;64127;51.488;5.462;2023-02-23T03:53:52;65.37;;;44.53;;
75429;SDS011;64127;51.488;5.462;2023-02-23T03:56:55;62.30;;;42.53;;
75429;SDS011;64127;51.488;5.462;2023-02-23T03:59:52;62.07;;;42.30;;
75429;SDS011;64127;51.488;5.462;2023-02-23T04:02:49;62.37;;;42.60;;
75429;SDS011;64127;51.488;5.462;2023-02-23T04:05:44;63.17;;;42.73;;
75429;SDS011;64127;51.488;5.462;2023-02-23T04:08:37;61.50;;;43.27;;
75429;SDS011;64127;51.488;5.462;2023-02-23T04:14:38;65.97;;;43.07;;
75429;SDS011;64127;51.488;5.462;2023-02-23T04:17:20;60.03;;;42.53;;
75429;SDS011;64127;51.488;5.462;2023-02-23T04:19:58;65.87;;;44.40;;
75429;SDS011;64127;51.488;5.462;2023-02-23T04:22:30;63.20;;;44.33;;
75429;SDS011;64127;51.488;5.462;2023-02-23T04:25:03;63.60;;;44.63;;
75429;SDS011;64127;51.488;5.462;2023-02-23T04:27:36;62.40;;;44.33;;
75429;SDS011;64127;51.488;5.462;2023-02-23T04:30:08;61.93;;;43.03;;
75429;SDS011;64127;51.488;5.462;2023-02-23T04:32:41;64.40;;;44.43;;
75429;SDS011;64127;51.488;5.462;2023-02-23T04:35:16;61.93;;;43.10;;
75429;SDS011;64127;51.488;5.462;2023-02-23T04:37:48;57.37;;;42.20;;
75429;SDS011;64127;51.488;5.462;2023-02-23T04:40:20;59.93;;;42.93;;
75429;SDS011;64127;51.488;5.462;2023-02-23T04:42:54;62.93;;;44.27;;
75429;SDS011;64127;51.488;5.462;2023-02-23T04:45:26;58.07;;;41.33;;
75429;SDS011;64127;51.488;5.462;2023-02-23T04:47:59;63.40;;;44.27;;
75429;SDS011;64127;51.488;5.462;2023-02-23T04:50:31;58.43;;;42.33;;
75429;SDS011;64127;51.488;5.462;2023-02-23T04:53:03;59.57;;;42.23;;
75429;SDS011;64127;51.488;5.462;2023-02-23T04:55:35;60.43;;;43.63;;
75429;SDS011;64127;51.488;5.462;2023-02-23T04:58:08;61.50;;;43.07;;
75429;SDS011;64127;51.488;5.462;2023-02-23T05:00:44;58.43;;;40.73;;
75429;SDS011;64127;51.488;5.462;2023-02-23T05:03:16;58.10;;;42.03;;
75429;SDS011;64127;51.488;5.462;2023-02-23T05:05:47;55.23;;;41.07;;
75429;SDS011;64127;51.488;5.462;2023-02-23T05:08:20;57.47;;;41.43;;
75429;SDS011;64127;51.488;5.462;2023-02-23T05:10:51;58.83;;;40.77;;
75429;SDS011;64127;51.488;5.462;2023-02-23T05:13:23;54.07;;;39.57;;
75429;SDS011;64127;51.488;5.462;2023-02-23T05:15:56;57.10;;;39.60;;
75429;SDS011;64127;51.488;5.462;2023-02-23T05:18:28;53.90;;;39.33;;
75429;SDS011;64127;51.488;5.462;2023-02-23T05:21:04;55.70;;;40.03;;
75429;SDS011;64127;51.488;5.462;2023-02-23T05:23:38;53.33;;;39.03;;
75429;SDS011;64127;51.488;5.462;2023-02-23T05:26:10;55.00;;;39.20;;
75429;SDS011;64127;51.488;5.462;2023-02-23T05:28:43;52.97;;;39.53;;
75429;SDS011;64127;51.488;5.462;2023-02-23T05:31:15;53.60;;;39.80;;
75429;SDS011;64127;51.488;5.462;2023-02-23T05:33:48;57.93;;;40.83;;
75429;SDS011;64127;51.488;5.462;2023-02-23T05:36:20;51.67;;;38.97;;
75429;SDS011;64127;51.488;5.462;2023-02-23T05:38:53;54.33;;;39.87;;
75429;SDS011;64127;51.488;5.462;2023-02-23T05:41:25;54.53;;;38.80;;
75429;SDS011;64127;51.488;5.462;2023-02-23T05:43:57;51.17;;;37.20;;
75429;SDS011;64127;51.488;5.462;2023-02-23T05:46:29;51.80;;;38.63;;
75429;SDS011;64127;51.488;5.462;2023-02-23T05:49:01;50.43;;;36.53;;
75429;SDS011;64127;51.488;5.462;2023-02-23T05:51:33;54.13;;;38.80;;
75429;SDS011;64127;51.488;5.462;2023-02-23T05:54:05;54.50;;;38.93;;
75429;SDS011;64127;51.488;5.462;2023-02-23T05:56:38;52.33;;;38.03;;
75429;SDS011;64127;51.488;5.462;2023-02-23T05:59:11;50.37;;;37.03;;
75429;SDS011;64127;51.488;5.462;2023-02-23T06:01:43;51.73;;;38.00;;
75429;SDS011;64127;51.488;5.462;2023-02-23T06:04:15;54.40;;;38.57;;
75429;SDS011;64127;51.488;5.462;2023-02-23T06:06:47;54.03;;;39.67;;
75429;SDS011;64127;51.488;5.462;2023-02-23T06:09:19;51.10;;;38.87;;
75429;SDS011;64127;51.488;5.462;2023-02-23T06:11:51;50.23;;;37.90;;
75429;SDS011;64127;51.488;5.462;2023-02-23T06:14:23;52.47;;;39.50;;
75429;SDS011;64127;51.488;5.462;2023-02-23T06:16:55;52.53;;;37.70;;
75429;SDS011;64127;51.488;5.462;2023-02-23T06:19:28;55.97;;;39.03;;
75429;SDS011;64127;51.488;5.462;2023-02-23T06:22:01;52.90;;;38.53;;
75429;SDS011;64127;51.488;5.462;2023-02-23T06:24:33;51.47;;;37.73;;
75429;SDS011;64127;51.488;5.462;2023-02-23T06:27:05;52.23;;;38.13;;
75429;SDS011;64127;51.488;5.462;2023-02-23T06:29:37;51.70;;;38.07;;
75429;SDS011;64127;51.488;5.462;2023-02-23T06:32:09;50.13;;;37.50;;
75429;SDS011;64127;51.488;5.462;2023-02-23T06:34:41;53.33;;;38.43;;
75429;SDS011;64127;51.488;5.462;2023-02-23T06:37:15;50.70;;;37.47;;
75429;SDS011;64127;51.488;5.462;2023-02-23T06:39:47;49.50;;;37.53;;
75429;SDS011;64127;51.488;5.462;2023-02-23T06:42:18;55.23;;;39.50;;
75429;SDS011;64127;51.488;5.462;2023-02-23T06:44:50;53.57;;;38.73;;
75429;SDS011;64127;51.488;5.462;2023-02-23T06:47:22;51.33;;;37.20;;
75429;SDS011;64127;51.488;5.462;2023-02-23T06:49:54;54.73;;;39.63;;
75429;SDS011;64127;51.488;5.462;2023-02-23T06:52:26;54.03;;;37.90;;
75429;SDS011;64127;51.488;5.462;2023-02-23T06:54:59;50.00;;;37.93;;
75429;SDS011;64127;51.488;5.462;2023-02-23T06:57:31;53.47;;;39.27;;
75429;SDS011;64127;51.488;5.462;2023-02-23T07:00:03;51.13;;;38.37;;
75429;SDS011;64127;51.488;5.462;2023-02-23T07:02:36;52.20;;;38.13;;
75429;SDS011;64127;51.488;5.462;2023-02-23T07:05:08;50.50;;;37.40;;
75429;SDS011;64127;51.488;5.462;2023-02-23T07:07:40;49.23;;;37.63;;
75429;SDS011;64127;51.488;5.462;2023-02-23T07:10:13;49.03;;;37.37;;
75429;SDS011;64127;51.488;5.462;2023-02-23T07:12:45;51.87;;;38.37;;
75429;SDS011;64127;51.488;5.462;2023-02-23T07:15:17;49.40;;;36.87;;
75429;SDS011;64127;51.488;5.462;2023-02-23T07:17:50;52.83;;;37.70;;
75429;SDS011;64127;51.488;5.462;2023-02-23T07:20:23;47.90;;;36.00;;
75429;SDS011;64127;51.488;5.462;2023-02-23T07:22:55;47.63;;;36.30;;
75429;SDS011;64127;51.488;5.462;2023-02-23T07:25:27;48.27;;;35.67;;
75429;SDS011;64127;51.488;5.462;2023-02-23T07:28:00;52.03;;;37.80;;
75429;SDS011;64127;51.488;5.462;2023-02-23T07:30:32;51.63;;;36.43;;
75429;SDS011;64127;51.488;5.462;2023-02-23T07:33:04;50.23;;;37.13;;
75429;SDS011;64127;51.488;5.462;2023-02-23T07:35:36;48.07;;;36.13;;
75429;SDS011;64127;51.488;5.462;2023-02-23T07:38:08;53.07;;;39.33;;
75429;SDS011;64127;51.488;5.462;2023-02-23T07:40:41;52.20;;;38.07;;
75429;SDS011;64127;51.488;5.462;2023-02-23T07:43:14;55.67;;;39.33;;
75429;SDS011;64127;51.488;5.462;2023-02-23T07:45:46;52.00;;;38.37;;
75429;SDS011;64127;51.488;5.462;2023-02-23T07:48:18;53.50;;;39.20;;
75429;SDS011;64127;51.488;5.462;2023-02-23T07:50:51;53.10;;;38.63;;
75429;SDS011;64127;51.488;5.462;2023-02-23T07:53:23;53.37;;;38.67;;
75429;SDS011;64127;51.488;5.462;2023-02-23T07:55:58;56.83;;;39.90;;
75429;SDS011;64127;51.488;5.462;2023-02-23T07:58:31;54.17;;;39.47;;
75429;SDS011;64127;51.488;5.462;2023-02-23T08:01:03;57.47;;;39.37;;
75429;SDS011;64127;51.488;5.462;2023-02-23T08:03:36;58.10;;;40.60;;
75429;SDS011;64127;51.488;5.462;2023-02-23T08:06:09;56.63;;;40.73;;
75429;SDS011;64127;51.488;5.462;2023-02-23T08:08:41;54.90;;;39.23;;
75429;SDS011;64127;51.488;5.462;2023-02-23T08:11:13;54.60;;;38.60;;
75429;SDS011;64127;51.488;5.462;2023-02-23T08:13:46;54.90;;;38.83;;
75429;SDS011;64127;51.488;5.462;2023-02-23T08:16:18;54.23;;;40.07;;
75429;SDS011;64127;51.488;5.462;2023-02-23T08:18:50;54.57;;;38.90;;
75429;SDS011;64127;51.488;5.462;2023-02-23T08:21:21;54.93;;;39.60;;
75429;SDS011;64127;51.488;5.462;2023-02-23T08:23:55;49.50;;;36.73;;
75429;SDS011;64127;51.488;5.462;2023-02-23T08:26:28;50.83;;;36.63;;
75429;SDS011;64127;51.488;5.462;2023-02-23T08:29:00;51.17;;;37.13;;
75429;SDS011;64127;51.488;5.462;2023-02-23T08:31:32;52.37;;;37.37;;
75429;SDS011;64127;51.488;5.462;2023-02-23T08:34:05;53.20;;;38.33;;
75429;SDS011;64127;51.488;5.462;2023-02-23T08:36:37;50.00;;;36.27;;
75429;SDS011;64127;51.488;5.462;2023-02-23T08:39:10;53.70;;;38.03;;
75429;SDS011;64127;51.488;5.462;2023-02-23T08:41:43;55.83;;;38.87;;
75429;SDS011;64127;51.488;5.462;2023-02-23T08:44:15;54.13;;;37.80;;
75429;SDS011;64127;51.488;5.462;2023-02-23T08:46:47;57.37;;;38.50;;
75429;SDS011;64127;51.488;5.462;2023-02-23T08:49:19;53.23;;;37.70;;
75429;SDS011;64127;51.488;5.462;2023-02-23T08:51:52;54.03;;;37.40;;
75429;SDS011;64127;51.488;5.462;2023-02-23T08:54:24;50.80;;;37.07;;
75429;SDS011;64127;51.488;5.462;2023-02-23T08:56:57;51.93;;;36.73;;
75429;SDS011;64127;51.488;5.462;2023-02-23T08:59:29;53.47;;;37.20;;
75429;SDS011;64127;51.488;5.462;2023-02-23T09:02:01;53.40;;;38.00;;
75429;SDS011;64127;51.488;5.462;2023-02-23T09:04:33;49.60;;;36.37;;
75429;SDS011;64127;51.488;5.462;2023-02-23T09:07:05;54.47;;;38.23;;
75429;SDS011;64127;51.488;5.462;2023-02-23T09:09:39;50.83;;;35.77;;
75429;SDS011;64127;51.488;5.462;2023-02-23T09:12:11;48.33;;;35.00;;
75429;SDS011;64127;51.488;5.462;2023-02-23T09:14:43;49.37;;;35.70;;
75429;SDS011;64127;51.488;5.462;2023-02-23T09:17:16;48.37;;;34.97;;
75429;SDS011;64127;51.488;5.462;2023-02-23T09:19:49;48.13;;;34.17;;
75429;SDS011;64127;51.488;5.462;2023-02-23T09:22:21;48.83;;;35.30;;
75429;SDS011;64127;51.488;5.462;2023-02-23T09:24:53;48.53;;;36.13;;
75429;SDS011;64127;51.488;5.462;2023-02-23T09:27:25;48.00;;;35.57;;
75429;SDS011;64127;51.488;5.462;2023-02-23T09:29:57;52.33;;;36.43;;
75429;SDS011;64127;51.488;5.462;2023-02-23T09:32:29;51.47;;;36.03;;
75429;SDS011;64127;51.488;5.462;2023-02-23T09:35:01;52.57;;;37.17;;
75429;SDS011;64127;51.488;5.462;2023-02-23T09:37:33;51.50;;;36.17;;
75429;SDS011;64127;51.488;5.462;2023-02-23T09:40:05;49.37;;;35.57;;
75429;SDS011;64127;51.488;5.462;2023-02-23T09:42:43;48.50;;;35.17;;
75429;SDS011;64127;51.488;5.462;2023-02-23T09:45:41;49.17;;;36.57;;
75429;SDS011;64127;51.488;5.462;2023-02-23T09:48:24;47.90;;;35.07;;
75429;SDS011;64127;51.488;5.462;2023-02-23T09:50:58;47.40;;;35.43;;
75429;SDS011;64127;51.488;5.462;2023-02-23T09:59:06;49.93;;;35.60;;
75429;SDS011;64127;51.488;5.462;2023-02-23T10:04:45;46.67;;;34.90;;
75429;SDS011;64127;51.488;5.462;2023-02-23T10:16:42;49.27;;;34.77;;
75429;SDS011;64127;51.488;5.462;2023-02-23T10:19:40;44.57;;;35.33;;
75429;SDS011;64127;51.488;5.462;2023-02-23T10:22:31;46.60;;;34.90;;
75429;SDS011;64127;51.488;5.462;2023-02-23T10:25:12;45.37;;;33.17;;
75429;SDS011;64127;51.488;5.462;2023-02-23T10:27:50;43.13;;;33.80;;
75429;SDS011;64127;51.488;5.462;2023-02-23T10:30:30;41.63;;;33.13;;
75429;SDS011;64127;51.488;5.462;2023-02-23T10:35:49;43.30;;;33.43;;
75429;SDS011;64127;51.488;5.462;2023-02-23T10:38:43;43.97;;;33.67;;
75429;SDS011;64127;51.488;5.462;2023-02-23T10:41:16;41.87;;;33.40;;
75429;SDS011;64127;51.488;5.462;2023-02-23T10:43:49;41.13;;;33.07;;
75429;SDS011;64127;51.488;5.462;2023-02-23T10:46:22;43.67;;;33.17;;
75429;SDS011;64127;51.488;5.462;2023-02-23T10:49:02;41.83;;;33.70;;
75429;SDS011;64127;51.488;5.462;2023-02-23T10:51:37;40.77;;;33.03;;
75429;SDS011;64127;51.488;5.462;2023-02-23T11:00:07;40.53;;;32.20;;
75429;SDS011;64127;51.488;5.462;2023-02-23T11:02:48;41.07;;;31.23;;
75429;SDS011;64127;51.488;5.462;2023-02-23T11:08:19;39.67;;;32.60;;
75429;SDS011;64127;51.488;5.462;2023-02-23T11:13:49;41.17;;;32.10;;
75429;SDS011;64127;51.488;5.462;2023-02-23T11:16:27;42.73;;;33.33;;
75429;SDS011;64127;51.488;5.462;2023-02-23T11:19:14;43.70;;;33.77;;
75429;SDS011;64127;51.488;5.462;2023-02-23T11:21:56;42.20;;;32.70;;
75429;SDS011;64127;51.488;5.462;2023-02-23T11:24:32;44.57;;;34.33;;
75429;SDS011;64127;51.488;5.462;2023-02-23T11:27:20;46.03;;;36.03;;
75429;SDS011;64127;51.488;5.462;2023-02-23T11:29:56;45.23;;;35.57;;
75429;SDS011;64127;51.488;5.462;2023-02-23T11:32:37;41.57;;;34.43;;
75429;SDS011;64127;51.488;5.462;2023-02-23T11:37:51;46.10;;;35.73;;
75429;SDS011;64127;51.488;5.462;2023-02-23T11:40:27;44.47;;;36.37;;
75429;SDS011;64127;51.488;5.462;2023-02-23T11:43:06;45.87;;;36.50;;
75429;SDS011;64127;51.488;5.462;2023-02-23T11:48:21;45.10;;;36.10;;
75429;SDS011;64127;51.488;5.462;2023-02-23T11:51:04;43.90;;;35.80;;
75429;SDS011;64127;51.488;5.462;2023-02-23T11:53:38;44.20;;;35.47;;
75429;SDS011;64127;51.488;5.462;2023-02-23T11:56:19;43.73;;;34.97;;
75429;SDS011;64127;51.488;5.462;2023-02-23T12:04:27;44.07;;;33.20;;
75429;SDS011;64127;51.488;5.462;2023-02-23T12:07:17;39.57;;;32.03;;
75429;SDS011;64127;51.488;5.462;2023-02-23T12:10:20;34.63;;;28.03;;
75429;SDS011;64127;51.488;5.462;2023-02-23T12:13:26;34.93;;;28.37;;
75429;SDS011;64127;51.488;5.462;2023-02-23T12:30:25;26.23;;;23.13;;
75429;SDS011;64127;51.488;5.462;2023-02-23T12:33:09;29.83;;;24.20;;
75429;SDS011;64127;51.488;5.462;2023-02-23T12:41:36;25.17;;;21.40;;
75429;SDS011;64127;51.488;5.462;2023-02-23T12:47:32;22.90;;;19.07;;
75429;SDS011;64127;51.488;5.462;2023-02-23T12:53:16;24.13;;;19.13;;
75429;SDS011;64127;51.488;5.462;2023-02-23T13:06:22;22.97;;;18.93;;
75429;SDS011;64127;51.488;5.462;2023-02-23T13:15:18;24.00;;;19.90;;
75429;SDS011;64127;51.488;5.462;2023-02-23T13:21:41;22.77;;;18.40;;
75429;SDS011;64127;51.488;5.462;2023-02-23T13:24:44;22.87;;;17.77;;
75429;SDS011;64127;51.488;5.462;2023-02-23T13:27:26;22.50;;;18.97;;
75429;SDS011;64127;51.488;5.462;2023-02-23T13:30:20;22.00;;;18.60;;
75429;SDS011;64127;51.488;5.462;2023-02-23T13:32:53;21.03;;;16.63;;
75429;SDS011;64127;51.488;5.462;2023-02-23T13:35:25;18.63;;;16.20;;
75429;SDS011;64127;51.488;5.462;2023-02-23T13:38:13;17.50;;;15.47;;
75429;SDS011;64127;51.488;5.462;2023-02-23T13:41:06;18.43;;;15.23;;
75429;SDS011;64127;51.488;5.462;2023-02-23T13:44:14;17.60;;;14.17;;
75429;SDS011;64127;51.488;5.462;2023-02-23T13:53:06;13.80;;;11.37;;
75429;SDS011;64127;51.488;5.462;2023-02-23T13:56:20;11.47;;;10.30;;
75429;SDS011;64127;51.488;5.462;2023-02-23T14:01:50;12.60;;;10.90;;
75429;SDS011;64127;51.488;5.462;2023-02-23T14:04:28;11.80;;;10.37;;
75429;SDS011;64127;51.488;5.462;2023-02-23T14:12:38;12.10;;;10.87;;
75429;SDS011;64127;51.488;5.462;2023-02-23T14:18:56;11.90;;;10.67;;
75429;SDS011;64127;51.488;5.462;2023-02-23T14:24:23;13.10;;;11.70;;
75429;SDS011;64127;51.488;5.462;2023-02-23T14:32:44;12.20;;;10.83;;
75429;SDS011;64127;51.488;5.462;2023-02-23T14:38:03;11.50;;;10.30;;
75429;SDS011;64127;51.488;5.462;2023-02-23T14:40:42;12.03;;;10.20;;
75429;SDS011;64127;51.488;5.462;2023-02-23T14:46:19;11.47;;;8.90;;
75429;SDS011;64127;51.488;5.462;2023-02-23T14:48:56;11.00;;;8.47;;
75429;SDS011;64127;51.488;5.462;2023-02-23T14:54:20;9.43;;;7.77;;
75429;SDS011;64127;51.488;5.462;2023-02-23T14:57:23;9.97;;;7.40;;
75429;SDS011;64127;51.488;5.462;2023-02-23T15:00:00;8.43;;;7.53;;
75429;SDS011;64127;51.488;5.462;2023-02-23T15:02:58;9.00;;;7.27;;
75429;SDS011;64127;51.488;5.462;2023-02-23T15:06:00;9.17;;;7.13;;
75429;SDS011;64127;51.488;5.462;2023-02-23T15:08:32;8.80;;;7.40;;
75429;SDS011;64127;51.488;5.462;2023-02-23T15:11:11;10.07;;;7.70;;
75429;SDS011;64127;51.488;5.462;2023-02-23T15:13:48;9.43;;;6.80;;
75429;SDS011;64127;51.488;5.462;2023-02-23T15:19:02;8.03;;;6.97;;
75429;SDS011;64127;51.488;5.462;2023-02-23T15:21:37;8.53;;;7.63;;
75429;SDS011;64127;51.488;5.462;2023-02-23T15:24:11;10.07;;;7.10;;
75429;SDS011;64127;51.488;5.462;2023-02-23T15:26:46;8.47;;;6.87;;
75429;SDS011;64127;51.488;5.462;2023-02-23T15:29:23;8.67;;;7.20;;
75429;SDS011;64127;51.488;5.462;2023-02-23T15:32:12;9.37;;;7.70;;
75429;SDS011;64127;51.488;5.462;2023-02-23T15:34:52;8.37;;;7.20;;
75429;SDS011;64127;51.488;5.462;2023-02-23T15:37:32;9.37;;;8.00;;
75429;SDS011;64127;51.488;5.462;2023-02-23T15:40:18;9.83;;;8.30;;
75429;SDS011;64127;51.488;5.462;2023-02-23T15:42:55;9.77;;;8.40;;
75429;SDS011;64127;51.488;5.462;2023-02-23T15:45:39;11.80;;;8.77;;
75429;SDS011;64127;51.488;5.462;2023-02-23T15:48:20;9.67;;;8.33;;
75429;SDS011;64127;51.488;5.462;2023-02-23T15:50:56;10.80;;;8.90;;
75429;SDS011;64127;51.488;5.462;2023-02-23T15:53:29;10.47;;;8.93;;
75429;SDS011;64127;51.488;5.462;2023-02-23T15:56:14;11.83;;;8.67;;
75429;SDS011;64127;51.488;5.462;2023-02-23T15:58:56;9.77;;;8.40;;
75429;SDS011;64127;51.488;5.462;2023-02-23T16:01:42;9.13;;;8.20;;
75429;SDS011;64127;51.488;5.462;2023-02-23T16:04:16;10.90;;;8.43;;
75429;SDS011;64127;51.488;5.462;2023-02-23T16:06:51;9.33;;;7.93;;
75429;SDS011;64127;51.488;5.462;2023-02-23T16:12:54;9.73;;;7.57;;
75429;SDS011;64127;51.488;5.462;2023-02-23T16:15:27;9.37;;;8.03;;
75429;SDS011;64127;51.488;5.462;2023-02-23T16:18:08;9.07;;;8.17;;
75429;SDS011;64127;51.488;5.462;2023-02-23T16:20:53;10.17;;;8.50;;
75429;SDS011;64127;51.488;5.462;2023-02-23T16:23:39;9.27;;;7.97;;
75429;SDS011;64127;51.488;5.462;2023-02-23T16:26:17;9.03;;;8.03;;
75429;SDS011;64127;51.488;5.462;2023-02-23T16:28:58;10.77;;;7.80;;
75429;SDS011;64127;51.488;5.462;2023-02-23T16:31:45;8.80;;;7.90;;
75429;SDS011;64127;51.488;5.462;2023-02-23T16:36:57;9.87;;;8.13;;
75429;SDS011;64127;51.488;5.462;2023-02-23T16:39:33;10.63;;;8.20;;
75429;SDS011;64127;51.488;5.462;2023-02-23T16:42:05;12.07;;;8.33;;
75429;SDS011;64127;51.488;5.462;2023-02-23T16:45:03;10.93;;;7.93;;
75429;SDS011;64127;51.488;5.462;2023-02-23T16:47:40;9.83;;;7.73;;
75429;SDS011;64127;51.488;5.462;2023-02-23T16:50:20;10.50;;;8.33;;
75429;SDS011;64127;51.488;5.462;2023-02-23T16:52:54;9.73;;;7.97;;
75429;SDS011;64127;51.488;5.462;2023-02-23T16:55:27;12.47;;;8.83;;
75429;SDS011;64127;51.488;5.462;2023-02-23T16:58:00;11.53;;;9.27;;
75429;SDS011;64127;51.488;5.462;2023-02-23T17:00:34;9.60;;;7.93;;
75429;SDS011;64127;51.488;5.462;2023-02-23T17:03:12;11.30;;;8.47;;
75429;SDS011;64127;51.488;5.462;2023-02-23T17:05:51;9.67;;;8.43;;
75429;SDS011;64127;51.488;5.462;2023-02-23T17:08:24;10.13;;;8.40;;
75429;SDS011;64127;51.488;5.462;2023-02-23T17:10:56;10.63;;;8.93;;
75429;SDS011;64127;51.488;5.462;2023-02-23T17:13:28;10.97;;;8.07;;
75429;SDS011;64127;51.488;5.462;2023-02-23T17:16:06;10.63;;;9.35;;
75429;SDS011;64127;51.488;5.462;2023-02-23T17:18:41;11.07;;;9.60;;
75429;SDS011;64127;51.488;5.462;2023-02-23T17:21:15;10.13;;;8.60;;
75429;SDS011;64127;51.488;5.462;2023-02-23T17:23:53;10.17;;;8.33;;
75429;SDS011;64127;51.488;5.462;2023-02-23T17:26:32;10.67;;;8.40;;
75429;SDS011;64127;51.488;5.462;2023-02-23T17:29:05;11.97;;;8.63;;
75429;SDS011;64127;51.488;5.462;2023-02-23T17:31:37;10.50;;;8.30;;
75429;SDS011;64127;51.488;5.462;2023-02-23T17:34:10;10.03;;;8.73;;
75429;SDS011;64127;51.488;5.462;2023-02-23T17:36:43;10.03;;;8.57;;
75429;SDS011;64127;51.488;5.462;2023-02-23T17:39:15;11.43;;;8.57;;
75429;SDS011;64127;51.488;5.462;2023-02-23T17:41:48;10.03;;;8.77;;
75429;SDS011;64127;51.488;5.462;2023-02-23T17:44:20;13.50;;;8.90;;
75429;SDS011;64127;51.488;5.462;2023-02-23T17:46:52;10.50;;;9.33;;
75429;SDS011;64127;51.488;5.462;2023-02-23T17:49:24;10.33;;;8.60;;
75429;SDS011;64127;51.488;5.462;2023-02-23T17:51:56;9.47;;;8.47;;
75429;SDS011;64127;51.488;5.462;2023-02-23T17:54:28;11.03;;;9.00;;
75429;SDS011;64127;51.488;5.462;2023-02-23T17:57:00;10.90;;;8.57;;
75429;SDS011;64127;51.488;5.462;2023-02-23T17:59:33;10.87;;;8.90;;
75429;SDS011;64127;51.488;5.462;2023-02-23T18:02:05;11.00;;;8.97;;
75429;SDS011;64127;51.488;5.462;2023-02-23T18:04:43;12.60;;;8.73;;
75429;SDS011;64127;51.488;5.462;2023-02-23T18:07:16;10.00;;;8.30;;
75429;SDS011;64127;51.488;5.462;2023-02-23T18:09:50;10.87;;;8.63;;
75429;SDS011;64127;51.488;5.462;2023-02-23T18:12:22;11.57;;;8.67;;
75429;SDS011;64127;51.488;5.462;2023-02-23T18:14:56;11.27;;;9.10;;
75429;SDS011;64127;51.488;5.462;2023-02-23T18:17:29;12.37;;;9.13;;
75429;SDS011;64127;51.488;5.462;2023-02-23T18:20:04;11.83;;;8.80;;
75429;SDS011;64127;51.488;5.462;2023-02-23T18:22:37;11.87;;;9.13;;